Time;durP1;ratioP1;P1;durP2;ratioP2;P2;SDS_P1;SDS_P2;PMS_P1;PMS_P2;Temp;Humidity;BMP_temperature;BMP_pressure;BME280_temperature;BME280_humidity;BME280_pressure;Samples;Min_cycle;Max_cycle;Signal;HPM_P1;HPM_P2
2024/03/31 00:01:03;;;;;;;25.42;4.32;;;;;;;;;;4942417;28;20047;-67
2024/03/31 00:03:29;;;;;;;7.50;3.60;;;;;;;;;;4956152;28;20130;-66
2024/03/31 00:05:56;;;;;;;19.73;3.40;;;;;;;;;;4944091;28;20072;-66
2024/03/31 00:08:22;;;;;;;5.47;2.55;;;;;;;;;;4960208;28;20136;-66
2024/03/31 00:10:48;;;;;;;7.70;3.08;;;;;;;;;;4963156;28;20062;-66
2024/03/31 00:13:14;;;;;;;6.93;3.42;;;;;;;;;;4963174;28;20073;-66
2024/03/31 00:15:41;;;;;;;4.13;1.98;;;;;;;;;;4947554;28;20043;-66
2024/03/31 00:18:07;;;;;;;47.70;4.10;;;;;;;;;;4963294;28;20046;-65
2024/03/31 00:20:34;;;;;;;134.32;7.43;;;;;;;;;;4944058;28;20134;-65
2024/03/31 00:23:00;;;;;;;201.43;10.55;;;;;;;;;;4962477;28;20054;-65
2024/03/31 00:25:26;;;;;;;233.40;11.70;;;;;;;;;;4963368;28;20096;-65
2024/03/31 00:27:52;;;;;;;191.48;11.05;;;;;;;;;;4946093;28;20051;-65
2024/03/31 00:30:18;;;;;;;281.13;11.65;;;;;;;;;;4963676;28;20065;-65
2024/03/31 00:32:44;;;;;;;160.98;11.38;;;;;;;;;;4962238;28;20422;-65
2024/03/31 00:35:11;;;;;;;241.57;10.85;;;;;;;;;;4954677;28;20059;-65
2024/03/31 00:37:37;;;;;;;183.88;8.88;;;;;;;;;;4953591;28;20129;-65
2024/03/31 00:40:03;;;;;;;206.38;9.95;;;;;;;;;;4954341;28;20038;-65
2024/03/31 00:42:29;;;;;;;218.45;9.13;;;;;;;;;;4961805;28;20035;-65
2024/03/31 00:44:55;;;;;;;229.38;10.45;;;;;;;;;;4942832;28;20066;-65
2024/03/31 00:47:22;;;;;;;229.95;9.60;;;;;;;;;;4961689;28;20107;-66
2024/03/31 00:49:48;;;;;;;154.90;7.93;;;;;;;;;;4964025;28;20050;-65
2024/03/31 00:52:14;;;;;;;221.10;12.05;;;;;;;;;;4960641;28;20047;-65
2024/03/31 00:54:43;;;;;;;194.88;9.55;;;;;;;;;;4961817;28;20035;-66
2024/03/31 00:57:10;;;;;;;179.15;9.23;;;;;;;;;;4954315;28;20077;-65
2024/03/31 00:59:36;;;;;;;266.98;12.80;;;;;;;;;;4963388;28;20051;-66
2024/03/31 01:02:02;;;;;;;179.00;11.40;;;;;;;;;;4946609;28;20055;-65
2024/03/31 01:04:28;;;;;;;183.75;12.77;;;;;;;;;;4946572;28;20058;-65
2024/03/31 01:06:55;;;;;;;181.05;12.13;;;;;;;;;;4961262;28;20057;-65
2024/03/31 01:09:21;;;;;;;196.55;13.48;;;;;;;;;;4962525;28;20062;-65
2024/03/31 01:11:49;;;;;;;219.88;13.93;;;;;;;;;;4961870;28;20532;-65
2024/03/31 01:14:17;;;;;;;154.88;9.07;;;;;;;;;;4962601;28;20062;-65
2024/03/31 01:16:43;;;;;;;200.07;11.32;;;;;;;;;;4944534;28;20062;-65
2024/03/31 01:19:10;;;;;;;152.32;11.90;;;;;;;;;;4945838;28;20112;-65
2024/03/31 01:21:37;;;;;;;232.55;14.93;;;;;;;;;;4941562;28;20061;-65
2024/03/31 01:24:03;;;;;;;215.60;15.75;;;;;;;;;;4957712;28;20327;-66
2024/03/31 01:26:29;;;;;;;229.55;15.65;;;;;;;;;;4940269;28;20129;-65
2024/03/31 01:28:56;;;;;;;277.92;19.52;;;;;;;;;;4941148;28;20051;-65
2024/03/31 01:31:22;;;;;;;208.65;15.45;;;;;;;;;;4960588;28;20055;-65
2024/03/31 01:33:48;;;;;;;182.50;14.48;;;;;;;;;;4956859;28;20073;-65
2024/03/31 01:36:15;;;;;;;213.57;16.10;;;;;;;;;;4938832;28;20069;-65
2024/03/31 01:38:41;;;;;;;253.55;19.40;;;;;;;;;;4959892;28;20093;-65
2024/03/31 01:41:07;;;;;;;218.77;16.05;;;;;;;;;;4943724;28;20047;-65
2024/03/31 01:43:33;;;;;;;155.13;13.60;;;;;;;;;;4961584;28;20062;-65
2024/03/31 01:45:59;;;;;;;211.00;15.63;;;;;;;;;;4965351;28;20034;-66
2024/03/31 01:48:25;;;;;;;265.23;18.35;;;;;;;;;;4964870;28;20047;-65
2024/03/31 01:50:52;;;;;;;261.15;20.63;;;;;;;;;;4963973;28;20050;-65
2024/03/31 01:53:18;;;;;;;170.85;15.38;;;;;;;;;;4964090;28;20053;-65
2024/03/31 01:55:44;;;;;;;184.20;15.10;;;;;;;;;;4964234;28;20050;-65
2024/03/31 01:58:10;;;;;;;266.52;19.77;;;;;;;;;;4947676;28;20040;-65
2024/03/31 02:00:36;;;;;;;256.55;19.33;;;;;;;;;;4964283;28;20046;-65
2024/03/31 02:03:02;;;;;;;236.63;18.58;;;;;;;;;;4964889;28;20406;-66
2024/03/31 02:05:29;;;;;;;267.00;19.13;;;;;;;;;;4947755;28;20050;-66
2024/03/31 02:07:55;;;;;;;239.68;20.38;;;;;;;;;;4963538;28;20079;-66
2024/03/31 02:10:21;;;;;;;175.93;15.57;;;;;;;;;;4962331;28;20055;-66
2024/03/31 02:12:47;;;;;;;160.13;14.65;;;;;;;;;;4948242;28;20081;-66
2024/03/31 02:15:13;;;;;;;183.30;15.80;;;;;;;;;;4949138;28;20062;-66
2024/03/31 02:17:40;;;;;;;155.38;13.13;;;;;;;;;;4968149;28;20097;-65
2024/03/31 02:20:07;;;;;;;130.27;12.90;;;;;;;;;;4969139;28;20374;-65
2024/03/31 02:22:33;;;;;;;125.70;12.40;;;;;;;;;;4967821;28;21634;-65
2024/03/31 02:24:59;;;;;;;113.65;11.70;;;;;;;;;;4951236;28;20074;-65
2024/03/31 02:27:25;;;;;;;97.07;12.20;;;;;;;;;;4966741;28;20216;-65
2024/03/31 02:29:52;;;;;;;115.93;12.18;;;;;;;;;;4963848;28;20042;-65
2024/03/31 02:32:18;;;;;;;100.70;12.10;;;;;;;;;;4949206;28;20057;-66
2024/03/31 02:34:44;;;;;;;79.75;11.15;;;;;;;;;;4949453;28;20150;-66
2024/03/31 02:37:11;;;;;;;94.45;12.75;;;;;;;;;;4946033;28;20054;-66
2024/03/31 02:39:37;;;;;;;61.15;10.82;;;;;;;;;;4947396;28;20043;-66
2024/03/31 02:42:03;;;;;;;91.70;13.15;;;;;;;;;;4947377;28;20149;-66
2024/03/31 02:44:29;;;;;;;92.65;13.00;;;;;;;;;;4964432;28;20074;-66
2024/03/31 02:46:55;;;;;;;49.10;10.35;;;;;;;;;;4963920;28;20062;-66
2024/03/31 02:49:22;;;;;;;47.25;10.77;;;;;;;;;;4967027;28;20058;-66
2024/03/31 02:51:48;;;;;;;61.05;10.90;;;;;;;;;;4946882;28;20130;-66
2024/03/31 02:54:14;;;;;;;61.33;10.90;;;;;;;;;;4965016;28;20175;-66
2024/03/31 02:56:40;;;;;;;53.45;10.63;;;;;;;;;;4963902;28;20094;-66
2024/03/31 02:59:06;;;;;;;49.55;10.90;;;;;;;;;;4948087;28;20124;-66
2024/03/31 03:01:32;;;;;;;81.40;11.30;;;;;;;;;;4964010;28;20051;-66
2024/03/31 03:03:59;;;;;;;52.67;11.00;;;;;;;;;;4964983;28;20048;-66
2024/03/31 03:06:25;;;;;;;81.35;13.13;;;;;;;;;;4964852;28;20047;-66
2024/03/31 03:08:51;;;;;;;47.90;9.95;;;;;;;;;;4946381;28;20074;-66
2024/03/31 03:11:17;;;;;;;25.85;10.30;;;;;;;;;;4963363;28;20089;-66
2024/03/31 03:13:44;;;;;;;21.02;10.45;;;;;;;;;;4965307;28;20047;-66
2024/03/31 03:16:10;;;;;;;32.60;10.30;;;;;;;;;;4951539;28;20117;-66
2024/03/31 03:18:37;;;;;;;25.30;8.57;;;;;;;;;;4946796;28;20068;-66
2024/03/31 03:21:03;;;;;;;12.57;8.18;;;;;;;;;;4945946;28;20181;-66
2024/03/31 03:23:31;;;;;;;14.63;8.77;;;;;;;;;;4964856;28;20089;-66
2024/03/31 03:25:58;;;;;;;12.82;8.18;;;;;;;;;;4947838;28;20067;-66
2024/03/31 03:28:24;;;;;;;11.77;8.23;;;;;;;;;;4945583;28;20129;-66
2024/03/31 03:30:50;;;;;;;14.77;8.65;;;;;;;;;;4964259;28;20487;-66
2024/03/31 03:33:16;;;;;;;12.45;7.72;;;;;;;;;;4946361;28;20350;-66
2024/03/31 03:35:43;;;;;;;12.85;8.40;;;;;;;;;;4944654;28;21199;-66
2024/03/31 03:38:09;;;;;;;12.68;8.20;;;;;;;;;;4967867;28;20062;-66
2024/03/31 03:40:35;;;;;;;19.13;9.13;;;;;;;;;;4945954;28;20055;-66
2024/03/31 03:43:02;;;;;;;14.55;9.50;;;;;;;;;;4947800;28;20071;-66
2024/03/31 03:45:28;;;;;;;15.13;9.07;;;;;;;;;;4965426;28;20043;-66
2024/03/31 03:47:54;;;;;;;14.50;9.65;;;;;;;;;;4965094;28;20162;-66
2024/03/31 03:50:21;;;;;;;14.48;9.38;;;;;;;;;;4964046;28;20050;-66
2024/03/31 03:52:47;;;;;;;15.52;9.32;;;;;;;;;;4964371;28;20035;-66
2024/03/31 03:55:13;;;;;;;19.45;10.93;;;;;;;;;;4964257;28;20039;-66
2024/03/31 03:57:39;;;;;;;15.77;10.15;;;;;;;;;;4961336;28;20086;-66
2024/03/31 04:00:06;;;;;;;20.65;11.60;;;;;;;;;;4948530;28;20055;-66
2024/03/31 04:02:32;;;;;;;18.48;10.43;;;;;;;;;;4962672;28;20034;-66
2024/03/31 04:04:58;;;;;;;16.10;10.30;;;;;;;;;;4946071;28;20156;-66
2024/03/31 04:07:24;;;;;;;22.23;11.63;;;;;;;;;;4964483;28;20055;-66
2024/03/31 04:09:51;;;;;;;18.85;11.38;;;;;;;;;;4962911;28;20057;-66
2024/03/31 04:12:17;;;;;;;13.68;10.15;;;;;;;;;;4946189;28;20494;-66
2024/03/31 04:14:43;;;;;;;15.15;10.05;;;;;;;;;;4966366;28;20035;-66
2024/03/31 04:17:09;;;;;;;14.95;10.23;;;;;;;;;;4963406;28;20054;-65
2024/03/31 04:19:36;;;;;;;15.27;10.18;;;;;;;;;;4947246;28;20047;-66
2024/03/31 04:22:02;;;;;;;14.25;9.88;;;;;;;;;;4942942;28;20491;-66
2024/03/31 04:24:29;;;;;;;14.25;10.13;;;;;;;;;;4963534;28;20047;-66
2024/03/31 04:26:55;;;;;;;16.83;11.13;;;;;;;;;;4964134;28;20046;-66
2024/03/31 04:29:21;;;;;;;20.13;11.75;;;;;;;;;;4945014;28;20047;-66
2024/03/31 04:31:54;;;;;;;16.48;11.23;;;;;;;;;;4929414;28;20399;-66
2024/03/31 04:34:21;;;;;;;19.20;11.73;;;;;;;;;;4949025;28;20134;-66
2024/03/31 04:36:49;;;;;;;17.83;11.98;;;;;;;;;;4948222;28;20535;-66
2024/03/31 04:39:16;;;;;;;16.75;12.15;;;;;;;;;;4966340;28;20074;-66
2024/03/31 04:41:42;;;;;;;17.30;11.73;;;;;;;;;;4946483;28;20118;-66
2024/03/31 04:44:08;;;;;;;19.08;12.20;;;;;;;;;;4949301;28;20043;-66
2024/03/31 04:46:34;;;;;;;19.20;12.10;;;;;;;;;;4967570;28;20465;-66
2024/03/31 04:49:00;;;;;;;24.05;12.40;;;;;;;;;;4949558;28;20046;-66
2024/03/31 04:51:27;;;;;;;19.80;12.75;;;;;;;;;;4947670;28;20513;-66
2024/03/31 04:53:53;;;;;;;22.35;12.10;;;;;;;;;;4950737;28;20098;-66
2024/03/31 04:56:19;;;;;;;16.05;11.60;;;;;;;;;;4966431;28;20043;-66
2024/03/31 04:58:45;;;;;;;25.02;12.95;;;;;;;;;;4963084;28;20038;-66
2024/03/31 05:01:12;;;;;;;20.48;12.93;;;;;;;;;;4946797;28;20049;-66
2024/03/31 05:03:38;;;;;;;20.85;12.55;;;;;;;;;;4960323;28;20055;-65
2024/03/31 05:06:04;;;;;;;21.48;12.70;;;;;;;;;;4960731;28;20057;-65
2024/03/31 05:08:30;;;;;;;17.85;12.10;;;;;;;;;;4943427;28;20487;-65
2024/03/31 05:10:57;;;;;;;19.77;12.73;;;;;;;;;;4959507;28;20502;-65
2024/03/31 05:13:27;;;;;;;21.00;13.23;;;;;;;;;;4943890;28;20054;-65
2024/03/31 05:15:58;;;;;;;20.15;13.63;;;;;;;;;;4957463;28;20225;-65
2024/03/31 05:18:24;;;;;;;19.58;13.20;;;;;;;;;;4943469;28;20170;-66
2024/03/31 05:20:54;;;;;;;23.35;13.35;;;;;;;;;;4962847;28;20055;-65
2024/03/31 05:23:21;;;;;;;22.58;13.23;;;;;;;;;;4945820;28;20387;-66
2024/03/31 05:25:47;;;;;;;24.55;13.93;;;;;;;;;;4929632;28;20055;-66
2024/03/31 05:28:13;;;;;;;23.10;14.10;;;;;;;;;;4944775;28;20051;-66
2024/03/31 05:30:39;;;;;;;25.65;14.38;;;;;;;;;;4961533;28;20046;-66
2024/03/31 05:33:05;;;;;;;25.17;12.65;;;;;;;;;;4961400;28;20050;-66
2024/03/31 05:35:31;;;;;;;22.00;11.75;;;;;;;;;;4945731;28;20062;-66
2024/03/31 05:37:58;;;;;;;24.02;10.85;;;;;;;;;;4963315;28;20074;-66
2024/03/31 05:40:24;;;;;;;24.73;9.70;;;;;;;;;;4944388;28;20130;-66
2024/03/31 05:42:50;;;;;;;17.50;8.30;;;;;;;;;;4946097;28;20662;-66
2024/03/31 05:45:16;;;;;;;17.90;8.23;;;;;;;;;;4961990;28;20081;-66
2024/03/31 05:47:42;;;;;;;20.45;8.00;;;;;;;;;;4961024;28;20046;-66
2024/03/31 05:50:08;;;;;;;16.73;7.93;;;;;;;;;;4968604;28;20035;-66
2024/03/31 05:52:35;;;;;;;19.48;8.48;;;;;;;;;;4971416;28;20035;-66
2024/03/31 05:55:01;;;;;;;17.17;6.90;;;;;;;;;;4969304;28;20093;-66
2024/03/31 05:57:27;;;;;;;18.80;8.98;;;;;;;;;;4949710;28;20069;-66
2024/03/31 05:59:54;;;;;;;14.82;8.23;;;;;;;;;;4951688;28;20495;-66
2024/03/31 06:02:20;;;;;;;19.13;9.35;;;;;;;;;;4959838;28;20097;-64
2024/03/31 06:04:46;;;;;;;18.42;10.00;;;;;;;;;;4948735;28;20047;-65
2024/03/31 06:07:12;;;;;;;17.58;9.50;;;;;;;;;;4955796;28;20673;-66
2024/03/31 06:09:38;;;;;;;22.08;11.23;;;;;;;;;;4955123;28;20047;-66
2024/03/31 06:12:05;;;;;;;17.17;11.10;;;;;;;;;;4971376;28;20060;-66
2024/03/31 06:14:32;;;;;;;20.45;11.27;;;;;;;;;;4970674;28;20856;-66
2024/03/31 06:16:58;;;;;;;18.95;11.30;;;;;;;;;;4971882;28;20043;-66
2024/03/31 06:19:24;;;;;;;21.48;12.30;;;;;;;;;;4952634;28;20051;-66
2024/03/31 06:21:50;;;;;;;18.30;12.10;;;;;;;;;;4968093;28;20601;-66
2024/03/31 06:24:17;;;;;;;21.67;12.32;;;;;;;;;;4954124;28;20102;-66
2024/03/31 06:26:43;;;;;;;20.52;13.20;;;;;;;;;;4969616;28;20050;-65
2024/03/31 06:29:09;;;;;;;22.33;13.85;;;;;;;;;;4952320;28;20111;-64
2024/03/31 06:31:35;;;;;;;24.98;13.43;;;;;;;;;;4973100;28;20122;-66
2024/03/31 06:34:02;;;;;;;24.52;14.68;;;;;;;;;;4956299;28;20039;-66
2024/03/31 06:36:28;;;;;;;20.40;13.80;;;;;;;;;;4974076;28;20479;-65
2024/03/31 06:38:54;;;;;;;19.20;13.52;;;;;;;;;;4974526;28;20121;-65
2024/03/31 06:41:20;;;;;;;20.77;13.75;;;;;;;;;;4956350;28;20073;-65
2024/03/31 06:43:47;;;;;;;19.80;13.18;;;;;;;;;;4955933;28;20056;-65
2024/03/31 06:46:13;;;;;;;18.95;13.27;;;;;;;;;;4955939;28;20300;-65
2024/03/31 06:48:39;;;;;;;21.98;14.20;;;;;;;;;;4956165;28;20383;-65
2024/03/31 06:51:05;;;;;;;20.80;14.00;;;;;;;;;;4954757;28;20042;-65
2024/03/31 06:53:32;;;;;;;18.65;13.45;;;;;;;;;;4974050;28;20494;-65
2024/03/31 06:55:58;;;;;;;22.67;14.82;;;;;;;;;;4956526;28;20129;-66
2024/03/31 06:58:24;;;;;;;21.67;15.07;;;;;;;;;;4951491;28;20438;-65
2024/03/31 07:00:56;;;;;;;20.48;14.50;;;;;;;;;;4955659;28;20085;-66
2024/03/31 07:03:22;;;;;;;24.38;14.20;;;;;;;;;;4969764;28;20066;-66
2024/03/31 07:05:48;;;;;;;22.42;16.48;;;;;;;;;;4950523;28;20162;-66
2024/03/31 07:08:14;;;;;;;20.83;15.40;;;;;;;;;;4955543;28;20054;-66
2024/03/31 07:10:40;;;;;;;20.85;15.80;;;;;;;;;;4967389;28;20125;-65
2024/03/31 07:13:06;;;;;;;20.60;14.80;;;;;;;;;;4954662;28;20047;-66
2024/03/31 07:15:33;;;;;;;21.73;15.63;;;;;;;;;;4967871;28;20045;-66
2024/03/31 07:18:06;;;;;;;21.45;15.88;;;;;;;;;;4967028;28;20055;-65
2024/03/31 07:20:34;;;;;;;19.52;17.00;;;;;;;;;;4948202;28;20385;-66
2024/03/31 07:23:02;;;;;;;19.90;15.18;;;;;;;;;;4950556;28;20090;-65
2024/03/31 07:25:28;;;;;;;21.75;16.48;;;;;;;;;;4953526;28;20046;-66
2024/03/31 07:27:55;;;;;;;21.50;15.98;;;;;;;;;;4967048;28;20061;-66
2024/03/31 07:30:21;;;;;;;22.00;16.67;;;;;;;;;;4967024;28;20094;-65
2024/03/31 07:32:47;;;;;;;21.20;16.08;;;;;;;;;;4966667;28;20101;-66
2024/03/31 07:35:13;;;;;;;19.63;15.45;;;;;;;;;;4948154;28;20444;-65
2024/03/31 07:37:39;;;;;;;21.98;15.82;;;;;;;;;;4950452;28;20114;-66
2024/03/31 07:40:06;;;;;;;19.88;15.23;;;;;;;;;;4968664;28;20046;-65
2024/03/31 07:42:33;;;;;;;21.65;15.98;;;;;;;;;;4968631;28;20490;-65
2024/03/31 07:44:59;;;;;;;20.38;16.13;;;;;;;;;;4950056;28;20462;-65
2024/03/31 07:47:25;;;;;;;20.90;15.18;;;;;;;;;;4969008;28;20042;-65
2024/03/31 07:49:51;;;;;;;18.77;15.00;;;;;;;;;;4968434;28;20047;-65
2024/03/31 07:52:18;;;;;;;17.40;14.48;;;;;;;;;;4968503;28;20043;-66
2024/03/31 07:54:44;;;;;;;18.35;14.35;;;;;;;;;;4966463;28;20245;-64
2024/03/31 07:57:10;;;;;;;15.88;13.68;;;;;;;;;;4951000;28;20078;-64
2024/03/31 07:59:36;;;;;;;16.98;13.63;;;;;;;;;;4948195;28;20129;-65
2024/03/31 08:02:02;;;;;;;15.95;13.18;;;;;;;;;;4962672;28;20054;-66
2024/03/31 08:04:29;;;;;;;15.70;12.82;;;;;;;;;;4968370;28;20102;-64
2024/03/31 08:06:55;;;;;;;21.20;12.35;;;;;;;;;;4943308;28;20065;-66
2024/03/31 08:09:22;;;;;;;14.60;12.35;;;;;;;;;;4944837;28;20391;-65
2024/03/31 08:11:48;;;;;;;12.40;9.80;;;;;;;;;;4946883;28;20127;-66
2024/03/31 08:14:14;;;;;;;14.85;12.02;;;;;;;;;;4960708;28;20099;-65
2024/03/31 08:16:40;;;;;;;12.45;10.57;;;;;;;;;;4970354;28;20062;-65
2024/03/31 08:19:06;;;;;;;10.52;9.32;;;;;;;;;;4971636;28;20046;-66
2024/03/31 08:21:33;;;;;;;10.90;9.43;;;;;;;;;;4973693;28;20597;-66
2024/03/31 08:23:59;;;;;;;11.43;8.02;;;;;;;;;;4971845;28;20046;-77
2024/03/31 08:26:25;;;;;;;11.07;9.05;;;;;;;;;;4946660;28;20047;-74
2024/03/31 08:28:51;;;;;;;10.07;8.55;;;;;;;;;;4943679;28;20043;-65
2024/03/31 08:31:17;;;;;;;10.70;8.43;;;;;;;;;;4967124;28;20091;-66
2024/03/31 08:33:46;;;;;;;11.30;9.18;;;;;;;;;;4968692;28;20411;-66
2024/03/31 08:36:12;;;;;;;11.55;9.57;;;;;;;;;;4966597;28;20095;-66
2024/03/31 08:38:38;;;;;;;13.30;8.05;;;;;;;;;;4951851;28;20042;-65
2024/03/31 08:41:07;;;;;;;11.07;8.68;;;;;;;;;;4946256;28;20054;-65
2024/03/31 08:43:37;;;;;;;12.30;9.50;;;;;;;;;;4960884;28;20038;-65
2024/03/31 08:46:03;;;;;;;9.48;8.35;;;;;;;;;;4962197;28;20059;-66
2024/03/31 08:48:32;;;;;;;10.27;8.50;;;;;;;;;;4962025;28;20069;-65
2024/03/31 08:50:58;;;;;;;10.38;8.75;;;;;;;;;;4944591;28;20134;-66
2024/03/31 08:53:25;;;;;;;12.65;9.20;;;;;;;;;;4947795;28;20113;-66
2024/03/31 08:55:52;;;;;;;11.73;9.45;;;;;;;;;;4964855;28;20398;-66
2024/03/31 08:58:18;;;;;;;10.85;8.85;;;;;;;;;;4960905;28;20108;-66
2024/03/31 09:00:44;;;;;;;9.65;8.30;;;;;;;;;;4962843;28;20038;-66
2024/03/31 09:03:11;;;;;;;9.77;8.35;;;;;;;;;;4960871;28;20047;-66
2024/03/31 09:05:37;;;;;;;10.98;8.85;;;;;;;;;;4960745;28;20407;-65
2024/03/31 09:08:04;;;;;;;10.98;7.97;;;;;;;;;;4958919;28;20233;-66
2024/03/31 09:10:30;;;;;;;10.55;8.98;;;;;;;;;;4954192;28;20031;-66
2024/03/31 09:12:56;;;;;;;10.35;8.63;;;;;;;;;;4963396;28;20049;-66
2024/03/31 09:15:23;;;;;;;10.68;8.45;;;;;;;;;;4958482;28;20078;-65
2024/03/31 09:17:49;;;;;;;8.45;7.00;;;;;;;;;;4954597;28;20368;-66
2024/03/31 09:20:15;;;;;;;11.57;8.02;;;;;;;;;;4941541;28;20058;-66
2024/03/31 09:22:41;;;;;;;9.90;8.00;;;;;;;;;;4940954;28;20085;-66
2024/03/31 09:25:09;;;;;;;11.43;8.38;;;;;;;;;;4943658;28;20065;-65
2024/03/31 09:27:35;;;;;;;10.40;8.27;;;;;;;;;;4942796;28;20458;-66
2024/03/31 09:30:03;;;;;;;10.07;8.43;;;;;;;;;;4964968;28;20117;-65
2024/03/31 09:32:29;;;;;;;9.38;7.95;;;;;;;;;;4947978;28;20473;-65
2024/03/31 09:34:55;;;;;;;10.10;9.00;;;;;;;;;;4970607;28;20127;-66
2024/03/31 09:37:21;;;;;;;14.50;9.38;;;;;;;;;;4969377;28;20455;-66
2024/03/31 09:39:47;;;;;;;10.30;8.50;;;;;;;;;;4943794;28;20051;-66
2024/03/31 09:42:14;;;;;;;8.95;7.63;;;;;;;;;;4961699;28;20077;-66
2024/03/31 09:44:43;;;;;;;9.27;7.60;;;;;;;;;;4962841;28;20111;-66
2024/03/31 09:47:27;;;;;;;9.52;8.23;;;;;;;;;;4964597;28;20144;-66
2024/03/31 09:49:53;;;;;;;;;;;;;;;;;;4946595;28;20165;-65
2024/03/31 09:52:23;;;;;;;9.18;8.13;;;;;;;;;;4961917;28;19969;-65
2024/03/31 09:54:55;;;;;;;9.30;8.30;;;;;;;;;;4957623;28;20101;-66
2024/03/31 09:57:23;;;;;;;7.88;7.07;;;;;;;;;;4956261;28;20058;-65
2024/03/31 09:59:57;;;;;;;9.70;7.45;;;;;;;;;;4962444;28;20093;-66
2024/03/31 10:02:26;;;;;;;8.63;7.57;;;;;;;;;;4946938;28;20047;-66
2024/03/31 10:05:02;;;;;;;8.80;7.30;;;;;;;;;;4963662;28;20054;-66
2024/03/31 10:07:29;;;;;;;10.40;7.32;;;;;;;;;;4942135;28;20059;-65
2024/03/31 10:09:56;;;;;;;9.40;7.32;;;;;;;;;;4947980;28;20040;-64
2024/03/31 10:12:23;;;;;;;9.32;7.10;;;;;;;;;;4946832;28;20161;-66
2024/03/31 10:14:49;;;;;;;8.18;7.32;;;;;;;;;;4944835;28;20046;-66
2024/03/31 10:17:16;;;;;;;9.55;7.82;;;;;;;;;;4960311;28;20039;-66
2024/03/31 10:19:45;;;;;;;9.30;8.35;;;;;;;;;;4945590;28;20044;-66
2024/03/31 10:22:12;;;;;;;8.07;7.22;;;;;;;;;;4953828;28;20162;-66
2024/03/31 10:24:40;;;;;;;8.55;7.60;;;;;;;;;;4943562;28;20040;-66
2024/03/31 10:27:08;;;;;;;8.88;7.47;;;;;;;;;;4941479;28;20086;-66
2024/03/31 10:29:35;;;;;;;8.88;7.97;;;;;;;;;;4940305;28;20047;-66
2024/03/31 10:32:01;;;;;;;11.15;8.55;;;;;;;;;;4943867;28;20048;-66
2024/03/31 10:34:28;;;;;;;9.07;8.18;;;;;;;;;;4946784;28;20100;-66
2024/03/31 10:36:54;;;;;;;9.23;8.25;;;;;;;;;;4948393;28;20122;-66
2024/03/31 10:39:21;;;;;;;11.80;9.10;;;;;;;;;;4944976;28;20079;-66
2024/03/31 10:41:48;;;;;;;9.95;8.48;;;;;;;;;;4944163;28;20039;-65
2024/03/31 10:44:15;;;;;;;10.77;9.68;;;;;;;;;;4945837;28;20139;-65
2024/03/31 10:46:43;;;;;;;11.18;9.68;;;;;;;;;;4946632;28;20047;-65
2024/03/31 10:49:10;;;;;;;10.55;9.45;;;;;;;;;;4944777;28;20090;-63
2024/03/31 10:51:41;;;;;;;11.52;10.32;;;;;;;;;;4944648;28;20101;-66
2024/03/31 10:54:37;;;;;;;11.88;10.63;;;;;;;;;;4954095;28;20115;-66
2024/03/31 10:57:05;;;;;;;12.73;10.35;;;;;;;;;;4944735;28;20046;-63
2024/03/31 10:59:31;;;;;;;12.55;10.63;;;;;;;;;;4944769;28;20098;-63
2024/03/31 11:01:58;;;;;;;12.60;10.30;;;;;;;;;;4944800;28;20050;-63
2024/03/31 11:04:25;;;;;;;12.90;10.55;;;;;;;;;;4943182;28;20047;-63
2024/03/31 11:06:52;;;;;;;14.65;11.35;;;;;;;;;;4948109;28;20134;-64
2024/03/31 11:09:18;;;;;;;14.07;11.60;;;;;;;;;;4963386;28;20541;-64
2024/03/31 11:11:45;;;;;;;12.00;10.77;;;;;;;;;;4946480;28;20651;-64
2024/03/31 11:14:12;;;;;;;14.60;10.93;;;;;;;;;;4948402;28;20453;-63
2024/03/31 11:16:38;;;;;;;14.00;9.90;;;;;;;;;;4957552;28;20623;-64
2024/03/31 11:19:06;;;;;;;15.65;11.82;;;;;;;;;;4957111;28;20043;-64
2024/03/31 11:21:33;;;;;;;12.45;10.48;;;;;;;;;;4933566;28;20047;-66
2024/03/31 11:24:01;;;;;;;12.55;11.10;;;;;;;;;;4967669;28;20422;-66
2024/03/31 11:26:27;;;;;;;13.30;10.50;;;;;;;;;;4965473;28;20043;-65
2024/03/31 11:28:54;;;;;;;13.85;11.13;;;;;;;;;;4963561;28;21981;-65
2024/03/31 11:31:21;;;;;;;11.35;10.15;;;;;;;;;;4949162;28;20134;-65
2024/03/31 11:33:48;;;;;;;11.40;9.82;;;;;;;;;;4965895;28;20482;-67
2024/03/31 11:36:16;;;;;;;11.32;10.13;;;;;;;;;;4949490;28;20042;-66
2024/03/31 11:38:42;;;;;;;13.82;10.75;;;;;;;;;;4965459;28;20949;-66
2024/03/31 11:41:09;;;;;;;10.98;9.80;;;;;;;;;;4965056;28;20053;-68
2024/03/31 11:43:35;;;;;;;11.48;9.25;;;;;;;;;;4945583;28;20074;-66
2024/03/31 11:46:02;;;;;;;13.50;10.80;;;;;;;;;;4947475;28;20043;-66
2024/03/31 11:48:28;;;;;;;12.27;9.68;;;;;;;;;;4948572;28;20479;-67
2024/03/31 11:50:55;;;;;;;10.57;9.05;;;;;;;;;;4966087;28;20438;-66
2024/03/31 11:53:21;;;;;;;13.38;10.48;;;;;;;;;;4965274;28;20563;-66
2024/03/31 11:55:47;;;;;;;11.07;9.30;;;;;;;;;;4965683;28;20066;-66
2024/03/31 11:58:14;;;;;;;10.50;8.98;;;;;;;;;;4962322;28;20035;-66
2024/03/31 12:00:54;;;;;;;12.18;9.38;;;;;;;;;;4966659;28;20132;-66
2024/03/31 12:03:20;;;;;;;10.73;8.70;;;;;;;;;;4964574;28;20047;-66
2024/03/31 12:05:49;;;;;;;11.10;9.25;;;;;;;;;;4949698;28;20051;-66
2024/03/31 12:08:18;;;;;;;11.20;8.85;;;;;;;;;;4942391;28;20133;-66
2024/03/31 12:10:47;;;;;;;11.02;9.82;;;;;;;;;;4945784;28;20130;-66
2024/03/31 12:13:14;;;;;;;12.23;9.43;;;;;;;;;;4942712;28;20550;-66
2024/03/31 12:15:41;;;;;;;13.98;9.57;;;;;;;;;;4944570;28;20050;-66
2024/03/31 12:18:09;;;;;;;9.43;8.38;;;;;;;;;;4945161;28;20043;-66
2024/03/31 12:20:36;;;;;;;10.30;8.45;;;;;;;;;;4949545;28;20360;-66
2024/03/31 12:23:03;;;;;;;11.07;8.45;;;;;;;;;;4945359;28;20051;-66
2024/03/31 12:25:30;;;;;;;9.40;7.40;;;;;;;;;;4955800;28;20380;-66
2024/03/31 12:27:57;;;;;;;9.75;7.93;;;;;;;;;;4944423;28;20058;-66
2024/03/31 12:30:24;;;;;;;11.05;8.88;;;;;;;;;;4947220;28;20062;-66
2024/03/31 12:32:50;;;;;;;11.52;9.30;;;;;;;;;;4946015;28;20054;-66
2024/03/31 12:35:17;;;;;;;12.40;9.38;;;;;;;;;;4944925;28;20070;-66
2024/03/31 12:37:43;;;;;;;12.63;9.20;;;;;;;;;;4942939;28;20043;-66
2024/03/31 12:40:09;;;;;;;11.75;9.82;;;;;;;;;;4945904;28;20400;-66
2024/03/31 12:42:41;;;;;;;14.32;10.10;;;;;;;;;;4944241;28;20039;-66
2024/03/31 12:45:07;;;;;;;11.18;8.80;;;;;;;;;;4946018;28;20131;-66
2024/03/31 12:47:34;;;;;;;11.52;8.73;;;;;;;;;;4944352;28;20059;-66
2024/03/31 12:50:01;;;;;;;11.82;9.10;;;;;;;;;;4943924;28;20452;-66
2024/03/31 12:52:28;;;;;;;12.98;9.82;;;;;;;;;;4960455;28;20572;-66
2024/03/31 12:54:55;;;;;;;11.02;9.13;;;;;;;;;;4946614;28;20505;-66
2024/03/31 12:57:21;;;;;;;14.38;9.52;;;;;;;;;;4945828;28;20051;-66
2024/03/31 12:59:47;;;;;;;10.50;8.95;;;;;;;;;;4946717;28;20039;-66
2024/03/31 13:02:15;;;;;;;12.38;8.57;;;;;;;;;;4947947;28;20090;-65
2024/03/31 13:04:42;;;;;;;12.65;8.77;;;;;;;;;;4942988;28;20061;-66
2024/03/31 13:07:09;;;;;;;10.88;8.48;;;;;;;;;;4944376;28;20180;-66
2024/03/31 13:09:36;;;;;;;14.15;8.75;;;;;;;;;;4940892;28;20395;-67
2024/03/31 13:12:03;;;;;;;11.25;8.95;;;;;;;;;;4944737;28;20058;-67
2024/03/31 13:14:30;;;;;;;11.85;8.18;;;;;;;;;;4945336;28;20047;-66
2024/03/31 13:16:56;;;;;;;12.43;9.15;;;;;;;;;;4941467;28;20103;-66
2024/03/31 13:19:22;;;;;;;9.35;7.78;;;;;;;;;;4946278;28;20098;-66
2024/03/31 13:21:49;;;;;;;10.60;7.10;;;;;;;;;;4944959;28;20050;-66
2024/03/31 13:24:15;;;;;;;13.27;7.72;;;;;;;;;;4943465;28;20047;-66
2024/03/31 13:26:42;;;;;;;12.13;7.60;;;;;;;;;;4942387;28;20137;-67
2024/03/31 13:29:08;;;;;;;10.23;6.97;;;;;;;;;;4942417;28;20126;-66
2024/03/31 13:31:34;;;;;;;9.73;7.40;;;;;;;;;;4957348;28;20087;-67
2024/03/31 13:34:00;;;;;;;11.30;6.60;;;;;;;;;;4946507;28;20145;-67
2024/03/31 13:36:26;;;;;;;8.48;6.88;;;;;;;;;;4938588;28;20079;-67
2024/03/31 13:38:53;;;;;;;9.13;6.88;;;;;;;;;;4943302;28;20062;-67
2024/03/31 13:41:19;;;;;;;10.13;7.78;;;;;;;;;;4941287;28;20559;-66
2024/03/31 13:43:45;;;;;;;9.00;7.40;;;;;;;;;;4943422;28;20050;-66
2024/03/31 13:46:11;;;;;;;10.27;7.78;;;;;;;;;;4938274;28;20039;-71
2024/03/31 13:48:37;;;;;;;9.73;7.40;;;;;;;;;;4942355;29;20519;-66
2024/03/31 13:51:04;;;;;;;9.50;7.40;;;;;;;;;;4939297;28;20127;-67
2024/03/31 13:53:30;;;;;;;9.98;7.45;;;;;;;;;;4942647;28;20659;-66
2024/03/31 13:55:56;;;;;;;13.57;7.35;;;;;;;;;;4944161;28;20495;-66
2024/03/31 13:58:22;;;;;;;12.52;7.85;;;;;;;;;;4944281;29;20039;-66
2024/03/31 14:00:49;;;;;;;10.05;8.13;;;;;;;;;;4938625;28;20103;-66
2024/03/31 14:03:15;;;;;;;10.68;7.63;;;;;;;;;;4934185;28;20055;-66
2024/03/31 14:05:41;;;;;;;9.70;7.75;;;;;;;;;;4941676;28;20558;-66
2024/03/31 14:08:07;;;;;;;10.80;7.82;;;;;;;;;;4942578;28;20106;-66
2024/03/31 14:10:33;;;;;;;10.32;7.80;;;;;;;;;;4948628;28;20051;-66
2024/03/31 14:13:05;;;;;;;11.63;7.88;;;;;;;;;;4946759;28;20069;-66
2024/03/31 14:15:34;;;;;;;9.43;7.78;;;;;;;;;;4946046;28;20051;-65
2024/03/31 14:18:00;;;;;;;9.68;7.30;;;;;;;;;;4947591;28;20136;-66
2024/03/31 14:20:27;;;;;;;9.85;7.63;;;;;;;;;;4941329;28;20090;-66